createdAt,value
2018-07-05T00:01:36.058Z,18.50
2018-07-05T00:04:15.643Z,18.50
2018-07-05T00:06:55.380Z,18.50
2018-07-05T00:09:34.943Z,18.40
2018-07-05T00:12:14.504Z,18.40
2018-07-05T00:14:53.966Z,18.40
2018-07-05T00:17:33.762Z,18.40
2018-07-05T00:20:13.415Z,18.40
2018-07-05T00:22:53.002Z,18.40
2018-07-05T00:25:32.698Z,18.40
2018-07-05T00:28:12.520Z,18.30
2018-07-05T00:30:52.034Z,18.30
2018-07-05T00:33:31.556Z,18.20
2018-07-05T00:36:11.012Z,18.00
2018-07-05T00:38:50.574Z,17.80
2018-07-05T00:41:30.087Z,17.80
2018-07-05T00:44:09.922Z,17.70
2018-07-05T00:46:49.562Z,17.60
2018-07-05T00:49:29.282Z,17.60
2018-07-05T00:52:08.894Z,17.70
2018-07-05T00:54:48.494Z,17.70
2018-07-05T00:57:28.034Z,17.70
2018-07-05T01:00:07.578Z,17.70
2018-07-05T01:02:47.154Z,17.60
2018-07-05T01:05:26.748Z,17.50
2018-07-05T01:08:06.260Z,17.40
2018-07-05T01:10:45.938Z,17.40
2018-07-05T01:13:25.591Z,17.40
2018-07-05T01:16:05.129Z,17.40
2018-07-05T01:18:44.826Z,17.40
2018-07-05T01:21:24.305Z,17.40
2018-07-05T01:24:03.733Z,17.50
2018-07-05T01:26:43.286Z,17.40
2018-07-05T01:29:22.936Z,17.40
2018-07-05T01:32:02.644Z,17.30
2018-07-05T01:34:42.296Z,17.20
2018-07-05T01:37:22.003Z,17.00
2018-07-05T01:40:01.448Z,16.90
2018-07-05T01:42:40.995Z,16.90
2018-07-05T01:45:20.653Z,16.90
2018-07-05T01:48:01.131Z,16.90
2018-07-05T01:50:40.670Z,16.80
2018-07-05T01:53:20.136Z,16.70
2018-07-05T01:55:59.737Z,16.60
2018-07-05T01:58:39.353Z,16.60
2018-07-05T02:01:18.841Z,16.40
2018-07-05T02:03:58.365Z,16.20
2018-07-05T02:06:37.957Z,16.10
2018-07-05T02:09:17.629Z,16.00
2018-07-05T02:11:57.883Z,15.90
2018-07-05T02:14:37.418Z,15.90
2018-07-05T02:17:17.013Z,15.90
2018-07-05T02:19:56.626Z,16.00
2018-07-05T02:22:36.150Z,16.00
2018-07-05T02:25:15.886Z,16.00
2018-07-05T02:27:55.462Z,16.10
2018-07-05T02:30:35.015Z,16.10
2018-07-05T02:33:14.558Z,16.00
2018-07-05T02:35:54.062Z,15.90
2018-07-05T02:38:33.635Z,15.90
2018-07-05T02:41:13.335Z,15.90
2018-07-05T02:43:53.150Z,15.90
2018-07-05T02:46:32.665Z,15.90
2018-07-05T02:49:12.249Z,15.90
2018-07-05T02:51:52.117Z,15.90
2018-07-05T02:54:32.698Z,15.90
2018-07-05T02:57:12.277Z,15.90
2018-07-05T02:59:51.717Z,16.00
2018-07-05T03:02:31.456Z,16.20
2018-07-05T03:05:11.058Z,16.90
2018-07-05T03:07:50.688Z,17.50
2018-07-05T03:10:31.364Z,17.90
2018-07-05T03:13:10.952Z,18.00
2018-07-05T03:15:50.550Z,18.00
2018-07-05T03:18:30.070Z,18.10
2018-07-05T03:21:09.587Z,18.30
2018-07-05T03:23:49.108Z,18.40
2018-07-05T03:26:28.674Z,18.50
2018-07-05T03:29:08.794Z,18.40
2018-07-05T03:31:48.354Z,18.30
2018-07-05T03:34:28.676Z,18.30
2018-07-05T03:37:08.262Z,18.30
2018-07-05T03:39:47.991Z,18.10
2018-07-05T03:42:27.490Z,17.60
2018-07-05T03:45:06.972Z,17.20
2018-07-05T03:47:46.589Z,16.70
2018-07-05T03:50:26.021Z,16.40
2018-07-05T03:53:05.638Z,16.20
2018-07-05T03:55:45.330Z,16.00
2018-07-05T03:58:25.029Z,15.80
2018-07-05T04:01:04.574Z,15.80
2018-07-05T04:03:44.325Z,15.80
2018-07-05T04:06:23.842Z,15.80
2018-07-05T04:09:03.726Z,15.80
2018-07-05T04:11:43.189Z,15.80
2018-07-05T04:14:22.763Z,15.70
2018-07-05T04:17:02.377Z,15.70
2018-07-05T04:19:46.663Z,15.60
2018-07-05T04:22:26.199Z,15.60
2018-07-05T04:25:05.895Z,15.60
2018-07-05T04:27:45.862Z,15.70
2018-07-05T04:30:25.427Z,15.70
2018-07-05T04:33:04.929Z,15.80
2018-07-05T04:35:44.561Z,15.80
2018-07-05T04:38:24.273Z,15.80
2018-07-05T04:41:03.887Z,15.80
2018-07-05T04:43:43.661Z,15.80
2018-07-05T04:46:23.251Z,15.90
2018-07-05T04:49:02.817Z,15.90
2018-07-05T04:51:42.479Z,15.90
2018-07-05T04:54:22.129Z,16.00
2018-07-05T04:57:01.713Z,16.00
2018-07-05T04:59:41.445Z,16.10
2018-07-05T05:02:21.130Z,16.10
2018-07-05T05:05:00.670Z,16.20
2018-07-05T05:07:40.292Z,16.20
2018-07-05T05:10:19.850Z,16.20
2018-07-05T05:12:59.470Z,16.30
2018-07-05T05:15:39.052Z,16.40
2018-07-05T05:18:18.721Z,16.40
2018-07-05T05:20:58.321Z,16.60
2018-07-05T05:23:38.019Z,16.60
2018-07-05T05:26:17.592Z,16.60
2018-07-05T05:28:57.304Z,16.70
2018-07-05T05:31:37.012Z,16.80
2018-07-05T05:34:16.476Z,16.90
2018-07-05T05:36:55.994Z,16.90
2018-07-05T05:39:35.534Z,16.90
2018-07-05T05:42:15.074Z,16.90
2018-07-05T05:44:54.643Z,16.90
2018-07-05T05:47:34.180Z,16.90
2018-07-05T05:50:13.712Z,17.00
2018-07-05T05:52:53.243Z,17.10
2018-07-05T05:55:32.880Z,17.10
2018-07-05T05:58:12.314Z,17.20
2018-07-05T06:00:51.882Z,17.20
2018-07-05T06:03:31.583Z,17.30
2018-07-05T06:06:11.194Z,17.30
2018-07-05T06:08:50.776Z,17.30
2018-07-05T06:11:30.808Z,17.40
2018-07-05T06:14:11.110Z,17.40
2018-07-05T06:16:51.382Z,17.50
2018-07-05T06:19:31.503Z,17.60
2018-07-05T06:22:11.077Z,17.70
2018-07-05T06:24:50.641Z,17.70
2018-07-05T06:27:30.865Z,17.80
2018-07-05T06:30:10.548Z,17.90
2018-07-05T06:32:50.745Z,17.90
2018-07-05T06:35:30.809Z,18.00
2018-07-05T06:38:10.366Z,18.10
2018-07-05T06:40:49.995Z,18.20
2018-07-05T06:43:29.672Z,18.30
2018-07-05T06:46:09.336Z,18.40
2018-07-05T06:48:49.049Z,18.40
2018-07-05T06:51:28.570Z,18.50
2018-07-05T06:54:08.826Z,18.60
2018-07-05T06:56:48.314Z,18.60
2018-07-05T06:59:27.824Z,18.70
2018-07-05T07:02:07.372Z,18.80
2018-07-05T07:04:46.838Z,18.80
2018-07-05T07:07:26.526Z,19.00
2018-07-05T07:10:06.012Z,19.10
2018-07-05T07:12:45.482Z,19.20
2018-07-05T07:15:25.009Z,19.30
2018-07-05T07:18:04.706Z,19.50
2018-07-05T07:20:44.312Z,19.50
2018-07-05T07:23:23.875Z,19.60
2018-07-05T07:26:03.416Z,19.80
2018-07-05T07:28:43.074Z,20.00
2018-07-05T07:31:22.716Z,20.20
2018-07-05T07:34:02.268Z,20.30
2018-07-05T07:36:41.892Z,20.30
2018-07-05T07:39:21.484Z,20.50
2018-07-05T07:41:50.109Z,20.60
2018-07-05T07:44:19.407Z,20.60
2018-07-05T07:46:47.577Z,20.60
2018-07-05T07:49:15.867Z,20.60
2018-07-05T07:51:43.175Z,20.70
2018-07-05T07:54:10.475Z,20.70
2018-07-05T07:56:37.941Z,20.70
2018-07-05T08:01:33.431Z,20.70
2018-07-05T08:04:00.750Z,20.80
2018-07-05T08:06:28.069Z,20.70
2018-07-05T08:08:55.373Z,20.70
2018-07-05T08:11:22.679Z,20.70
2018-07-05T08:13:49.983Z,20.70
2018-07-05T08:16:17.278Z,20.80
2018-07-05T08:18:44.605Z,20.70
2018-07-05T08:21:11.905Z,20.70
2018-07-05T08:23:39.207Z,20.70
2018-07-05T08:26:06.523Z,20.70
2018-07-05T08:28:33.821Z,20.60
2018-07-05T08:31:01.125Z,20.70
2018-07-05T08:33:28.435Z,20.70
2018-07-05T08:35:55.738Z,20.80
2018-07-05T08:38:23.044Z,20.80
2018-07-05T08:40:50.350Z,20.90
2018-07-05T08:43:17.651Z,21.00
2018-07-05T08:45:44.960Z,21.20
2018-07-05T08:48:12.301Z,21.40
2018-07-05T08:50:39.633Z,21.50
2018-07-05T08:53:06.948Z,21.60
2018-07-05T08:55:34.249Z,21.60
2018-07-05T08:58:01.545Z,21.60
2018-07-05T09:00:28.855Z,21.70
2018-07-05T09:02:56.170Z,21.90
2018-07-05T09:05:23.486Z,22.00
2018-07-05T09:07:50.795Z,22.00
2018-07-05T09:10:18.099Z,22.20
2018-07-05T09:12:45.415Z,22.30
2018-07-05T09:15:12.715Z,22.40
2018-07-05T09:17:40.129Z,22.50
2018-07-05T09:20:07.395Z,22.50
2018-07-05T09:22:34.697Z,22.70
2018-07-05T09:25:02.022Z,22.80
2018-07-05T09:27:29.343Z,22.90
2018-07-05T09:29:56.647Z,23.00
2018-07-05T09:32:23.951Z,23.10
2018-07-05T09:34:51.269Z,23.10
2018-07-05T09:37:18.605Z,23.20
2018-07-05T09:39:45.925Z,23.40
2018-07-05T09:42:13.232Z,23.50
2018-07-05T09:44:40.539Z,23.60
2018-07-05T09:47:07.835Z,23.70
2018-07-05T09:49:35.131Z,23.80
2018-07-05T09:52:02.441Z,23.80
2018-07-05T09:54:29.745Z,24.00
2018-07-05T09:56:57.062Z,24.20
2018-07-05T09:59:24.373Z,24.20
2018-07-05T10:01:51.688Z,24.40
2018-07-05T10:04:18.985Z,24.50
2018-07-05T10:06:46.629Z,24.60
2018-07-05T10:09:13.926Z,24.70
2018-07-05T10:11:41.240Z,24.80
2018-07-05T10:14:08.546Z,25.00
2018-07-05T10:16:35.858Z,25.10
2018-07-05T10:19:03.174Z,25.00
2018-07-05T10:21:30.507Z,24.90
2018-07-05T10:23:58.198Z,24.80
2018-07-05T10:26:25.502Z,24.80
2018-07-05T10:29:04.980Z,24.80
2018-07-05T10:31:44.514Z,24.90
2018-07-05T10:34:11.818Z,25.00
2018-07-05T10:36:39.169Z,25.10
2018-07-05T10:39:06.478Z,25.20
2018-07-05T10:41:46.134Z,25.30
2018-07-05T10:44:26.187Z,25.30
2018-07-05T10:47:05.862Z,25.30
2018-07-05T10:49:45.574Z,25.40
2018-07-05T10:52:25.209Z,25.50
2018-07-05T10:55:04.789Z,25.50
2018-07-05T10:57:44.361Z,25.60
2018-07-05T11:00:24.074Z,25.90
2018-07-05T11:03:03.766Z,26.10
2018-07-05T11:05:43.492Z,26.20
2018-07-05T11:08:23.213Z,26.30
2018-07-05T11:11:02.725Z,26.30
2018-07-05T11:13:42.270Z,26.40
2018-07-05T11:16:21.859Z,26.40
2018-07-05T11:19:02.191Z,26.30
2018-07-05T11:21:41.754Z,26.30
2018-07-05T11:24:21.473Z,26.30
2018-07-05T11:27:01.221Z,26.50
2018-07-05T11:29:40.910Z,26.50
2018-07-05T11:32:20.622Z,26.60
2018-07-05T11:35:00.326Z,26.80
2018-07-05T11:37:39.830Z,26.80
2018-07-05T11:40:19.564Z,26.80
2018-07-05T11:42:59.123Z,26.80
2018-07-05T11:45:38.679Z,27.00
2018-07-05T11:48:18.428Z,27.10
2018-07-05T11:50:57.961Z,27.30
2018-07-05T11:53:38.032Z,27.40
2018-07-05T11:56:17.779Z,27.40
2018-07-05T11:58:57.318Z,27.30
2018-07-05T12:01:37.034Z,27.30
2018-07-05T12:04:16.824Z,27.30
2018-07-05T12:06:56.296Z,27.50
2018-07-05T12:09:35.838Z,27.50
2018-07-05T12:12:15.524Z,27.70
2018-07-05T12:14:55.134Z,27.60
2018-07-05T12:17:35.152Z,27.40
2018-07-05T12:20:14.742Z,27.20
2018-07-05T12:22:54.398Z,27.10
2018-07-05T12:25:33.967Z,27.20
2018-07-05T12:28:13.666Z,27.30
2018-07-05T12:30:53.401Z,27.40
2018-07-05T12:33:32.961Z,27.40
2018-07-05T12:36:12.539Z,27.50
2018-07-05T12:38:52.110Z,27.60
2018-07-05T12:41:31.787Z,27.50
2018-07-05T12:44:11.401Z,27.50
2018-07-05T12:46:50.986Z,27.60
2018-07-05T12:49:30.531Z,27.60
2018-07-05T12:52:10.245Z,27.70
2018-07-05T12:54:49.952Z,27.80
2018-07-05T12:57:29.663Z,27.90
2018-07-05T13:00:09.229Z,27.90
2018-07-05T13:02:48.821Z,27.90
2018-07-05T13:05:28.349Z,27.80
2018-07-05T13:08:07.949Z,27.90
2018-07-05T13:10:47.453Z,27.70
2018-07-05T13:13:27.082Z,27.70
2018-07-05T13:16:06.720Z,27.90
2018-07-05T13:18:47.147Z,28.00
2018-07-05T13:21:26.834Z,28.10
2018-07-05T13:24:06.292Z,28.00
2018-07-05T13:26:46.038Z,28.00
2018-07-05T13:29:25.710Z,28.00
2018-07-05T13:32:05.305Z,27.90
2018-07-05T13:34:44.910Z,27.90
2018-07-05T13:37:24.658Z,28.00
2018-07-05T13:40:04.309Z,28.00
2018-07-05T13:42:43.874Z,28.20
2018-07-05T13:45:23.477Z,28.10
2018-07-05T13:48:03.088Z,28.00
2018-07-05T13:50:42.761Z,27.90
2018-07-05T13:53:22.437Z,27.80
2018-07-05T13:56:01.949Z,27.90
2018-07-05T13:58:41.613Z,28.10
2018-07-05T14:01:21.161Z,28.20
2018-07-05T14:04:00.677Z,28.30
2018-07-05T14:06:41.655Z,28.40
2018-07-05T14:09:21.185Z,28.30
2018-07-05T14:12:00.589Z,28.40
2018-07-05T14:14:40.091Z,28.40
2018-07-05T14:17:19.659Z,28.50
2018-07-05T14:19:59.352Z,28.50
2018-07-05T14:22:38.869Z,28.70
2018-07-05T14:25:18.415Z,28.90
2018-07-05T14:27:57.975Z,28.90
2018-07-05T14:30:37.643Z,28.90
2018-07-05T14:33:17.352Z,28.90
2018-07-05T14:35:57.045Z,28.90
2018-07-05T14:38:36.580Z,28.90
2018-07-05T14:41:16.206Z,29.00
2018-07-05T14:43:55.928Z,29.00
2018-07-05T14:46:35.363Z,29.00
2018-07-05T14:49:14.922Z,29.10
2018-07-05T14:51:54.667Z,29.20
2018-07-05T14:54:34.302Z,29.10
2018-07-05T14:57:13.946Z,29.00
2018-07-05T14:59:53.518Z,28.90
2018-07-05T15:02:33.066Z,29.00
2018-07-05T15:05:12.624Z,29.00
2018-07-05T15:07:52.164Z,29.00
2018-07-05T15:10:31.662Z,29.00
2018-07-05T15:13:11.390Z,29.00
2018-07-05T15:15:50.990Z,28.90
2018-07-05T15:18:30.672Z,29.00
2018-07-05T15:21:10.208Z,28.90
2018-07-05T15:23:49.910Z,28.90
2018-07-05T15:26:30.372Z,28.90
2018-07-05T15:29:09.939Z,28.90
2018-07-05T15:31:49.626Z,29.00
2018-07-05T15:34:29.314Z,29.10
2018-07-05T15:37:08.934Z,29.20
2018-07-05T15:39:48.622Z,29.10
2018-07-05T15:42:28.369Z,29.20
2018-07-05T15:45:08.531Z,29.20
2018-07-05T15:47:48.115Z,29.30
2018-07-05T15:50:27.679Z,29.20
2018-07-05T15:53:07.329Z,29.10
2018-07-05T15:55:46.849Z,29.00
2018-07-05T15:58:26.476Z,29.00
2018-07-05T16:01:06.113Z,29.20
2018-07-05T16:03:45.657Z,29.30
2018-07-05T16:06:25.345Z,29.40
2018-07-05T16:09:06.394Z,29.40
2018-07-05T16:11:45.925Z,29.60
2018-07-05T16:14:25.581Z,29.60
2018-07-05T16:17:05.559Z,29.60
2018-07-05T16:19:45.115Z,29.70
2018-07-05T16:22:24.759Z,29.70
2018-07-05T16:25:04.304Z,29.70
2018-07-05T16:27:43.884Z,29.80
2018-07-05T16:30:23.456Z,29.90
2018-07-05T16:33:03.020Z,30.00
2018-07-05T16:35:42.581Z,30.10
2018-07-05T16:38:22.144Z,30.10
2018-07-05T16:41:01.685Z,30.10
2018-07-05T16:43:41.214Z,30.10
2018-07-05T16:46:20.658Z,30.20
2018-07-05T16:49:00.354Z,30.20
2018-07-05T16:51:39.942Z,30.10
2018-07-05T16:54:19.682Z,30.20
2018-07-05T16:56:59.356Z,30.20
2018-07-05T16:59:39.048Z,30.30
2018-07-05T17:02:18.729Z,30.50
2018-07-05T17:04:58.174Z,30.70
2018-07-05T17:07:37.780Z,30.80
2018-07-05T17:10:17.360Z,30.90
2018-07-05T17:12:57.436Z,31.10
2018-07-05T17:15:37.004Z,31.40
2018-07-05T17:18:16.589Z,31.70
2018-07-05T17:20:56.265Z,31.80
2018-07-05T17:23:35.950Z,31.70
2018-07-05T17:26:15.601Z,31.20
2018-07-05T17:28:55.324Z,30.90
2018-07-05T17:31:34.878Z,30.70
2018-07-05T17:34:14.534Z,30.60
2018-07-05T17:36:54.094Z,30.70
2018-07-05T17:39:33.801Z,30.70
2018-07-05T17:42:13.303Z,30.80
2018-07-05T17:44:53.000Z,30.80
2018-07-05T17:47:32.607Z,30.70
2018-07-05T17:50:12.135Z,30.70
2018-07-05T17:52:51.800Z,30.80
2018-07-05T17:55:31.975Z,30.80
2018-07-05T17:58:11.452Z,31.20
2018-07-05T18:00:51.118Z,31.50
2018-07-05T18:03:30.710Z,31.40
2018-07-05T18:06:10.960Z,31.30
2018-07-05T18:08:50.534Z,31.20
2018-07-05T18:11:29.953Z,31.00
2018-07-05T18:14:09.534Z,30.60
2018-07-05T18:16:49.239Z,30.30
2018-07-05T18:19:28.711Z,30.30
2018-07-05T18:22:08.373Z,30.10
2018-07-05T18:24:48.021Z,29.90
2018-07-05T18:27:27.498Z,29.70
2018-07-05T18:30:07.230Z,29.60
2018-07-05T18:32:46.811Z,29.50
2018-07-05T18:35:26.347Z,29.60
2018-07-05T18:38:05.897Z,29.40
2018-07-05T18:40:45.516Z,29.30
2018-07-05T18:43:25.070Z,29.30
2018-07-05T18:46:04.929Z,29.10
2018-07-05T18:48:45.412Z,28.90
2018-07-05T18:51:25.047Z,28.80
2018-07-05T18:54:04.731Z,28.80
2018-07-05T18:56:44.329Z,28.80
2018-07-05T18:59:23.844Z,28.60
2018-07-05T19:02:03.475Z,28.30
2018-07-05T19:04:43.063Z,28.00
2018-07-05T19:07:22.571Z,27.80
2018-07-05T19:10:02.348Z,27.70
2018-07-05T19:12:41.944Z,27.60
2018-07-05T19:15:21.488Z,27.60
2018-07-05T19:18:01.116Z,27.50
2018-07-05T19:20:40.724Z,27.30
2018-07-05T19:23:20.278Z,27.10
2018-07-05T19:25:59.890Z,26.90
2018-07-05T19:28:39.414Z,26.60
2018-07-05T19:31:18.994Z,26.40
2018-07-05T19:33:58.544Z,26.10
2018-07-05T19:36:38.140Z,25.90
2018-07-05T19:39:17.823Z,25.40
2018-07-05T19:41:57.539Z,24.90
2018-07-05T19:44:37.218Z,24.30
2018-07-05T19:47:16.849Z,23.90
2018-07-05T19:49:56.537Z,23.60
2018-07-05T19:52:36.143Z,23.40
2018-07-05T19:55:15.666Z,23.20
2018-07-05T19:57:55.324Z,23.00
2018-07-05T20:00:35.042Z,22.80
2018-07-05T20:03:14.584Z,22.50
2018-07-05T20:05:54.109Z,22.30
2018-07-05T20:08:33.862Z,22.10
2018-07-05T20:11:13.401Z,22.00
2018-07-05T20:13:53.093Z,21.90
2018-07-05T20:16:32.666Z,21.80
2018-07-05T20:19:12.238Z,21.70
2018-07-05T20:21:51.908Z,21.50
2018-07-05T20:24:31.513Z,21.40
2018-07-05T20:27:11.166Z,21.30
2018-07-05T20:29:50.706Z,21.30
2018-07-05T20:32:30.274Z,21.20
2018-07-05T20:35:10.092Z,21.10
2018-07-05T20:37:49.668Z,21.00
2018-07-05T20:40:29.247Z,20.90
2018-07-05T20:43:08.867Z,20.80
2018-07-05T20:45:48.560Z,20.70
2018-07-05T20:48:28.260Z,20.60
2018-07-05T20:51:07.784Z,20.50
2018-07-05T20:53:47.430Z,20.50
2018-07-05T20:56:26.938Z,20.40
2018-07-05T20:59:06.480Z,20.40
2018-07-05T21:01:47.128Z,20.40
2018-07-05T21:04:26.807Z,20.40
2018-07-05T21:07:06.454Z,20.40
2018-07-05T21:09:46.097Z,20.40
2018-07-05T21:12:25.596Z,20.30
2018-07-05T21:15:05.282Z,20.30
2018-07-05T21:17:44.972Z,20.30
2018-07-05T21:20:24.584Z,20.40
2018-07-05T21:23:04.557Z,20.40
2018-07-05T21:25:44.157Z,20.40
2018-07-05T21:28:23.888Z,20.40
2018-07-05T21:31:03.548Z,20.30
2018-07-05T21:33:43.206Z,20.20
2018-07-05T21:36:22.891Z,20.10
2018-07-05T21:39:02.379Z,20.00
2018-07-05T21:41:41.853Z,20.00
2018-07-05T21:44:21.382Z,20.00
2018-07-05T21:47:00.895Z,20.00
2018-07-05T21:49:41.487Z,20.00
2018-07-05T21:52:21.089Z,19.90
2018-07-05T21:55:00.617Z,19.80
2018-07-05T21:57:40.200Z,19.70
2018-07-05T22:00:19.751Z,19.60
2018-07-05T22:02:59.345Z,19.50
2018-07-05T22:05:38.935Z,19.40
2018-07-05T22:08:18.490Z,19.40
2018-07-05T22:10:58.183Z,19.30
2018-07-05T22:13:37.817Z,19.20
2018-07-05T22:16:17.663Z,19.20
2018-07-05T22:19:02.706Z,19.10
2018-07-05T22:23:49.932Z,19.10
2018-07-05T22:26:36.665Z,19.10
2018-07-05T22:29:21.715Z,19.00
2018-07-05T22:32:01.297Z,19.00
2018-07-05T22:34:40.883Z,19.00
2018-07-05T22:37:20.626Z,19.00
2018-07-05T22:40:00.292Z,18.90
2018-07-05T22:42:39.955Z,18.70
2018-07-05T22:45:19.656Z,18.60
2018-07-05T22:47:59.216Z,18.50
2018-07-05T22:50:38.874Z,18.50
2018-07-05T22:53:18.482Z,18.40
2018-07-05T22:55:57.974Z,18.50
2018-07-05T22:58:37.462Z,18.50
2018-07-05T23:01:17.025Z,18.50
2018-07-05T23:03:57.414Z,18.50
2018-07-05T23:06:36.936Z,18.50
2018-07-05T23:09:16.562Z,18.50
2018-07-05T23:11:56.259Z,18.60
2018-07-05T23:14:35.681Z,18.50
2018-07-05T23:17:15.320Z,18.30
2018-07-05T23:19:55.023Z,18.20
2018-07-05T23:22:34.557Z,18.10
2018-07-05T23:25:14.277Z,17.90
2018-07-05T23:27:53.941Z,17.90
2018-07-05T23:30:33.577Z,17.90
2018-07-05T23:33:13.313Z,18.00
2018-07-05T23:35:52.797Z,18.00
2018-07-05T23:38:32.317Z,18.10
2018-07-05T23:41:11.847Z,18.10
2018-07-05T23:43:51.433Z,18.20
2018-07-05T23:46:31.085Z,18.20
2018-07-05T23:49:10.723Z,18.10
2018-07-05T23:51:50.308Z,18.20
2018-07-05T23:54:30.009Z,18.10
2018-07-05T23:57:09.570Z,18.00
2018-07-05T23:59:49.192Z,18.00
